Time;durP1;ratioP1;P1;durP2;ratioP2;P2;SDS_P1;SDS_P2;PMS_P1;PMS_P2;Temp;Humidity;BMP_temperature;BMP_pressure;BME280_temperature;BME280_humidity;BME280_pressure;Samples;Min_cycle;Max_cycle;Signal;HPM_P1;HPM_P2
2021/01/12 00:01:45;;;;;;;30.25;15.85;;;;;;;-5.25;72.19;96591.83;1787725;80;21080;-88
2021/01/12 00:04:13;;;;;;;24.87;11.60;;;;;;;-5.22;72.15;96591.95;1787946;80;21258;-88
2021/01/12 00:06:41;;;;;;;30.30;14.80;;;;;;;-5.22;71.96;96589.37;1787806;80;21273;-88
2021/01/12 00:09:09;;;;;;;22.67;10.93;;;;;;;-5.17;71.85;96593.53;1787895;80;21270;-88
2021/01/12 00:11:36;;;;;;;29.85;16.05;;;;;;;-5.16;71.82;96582.20;1787810;80;21111;-88
2021/01/12 00:14:03;;;;;;;17.85;9.93;;;;;;;-5.16;71.76;96586.08;1781646;80;21501;-88
2021/01/12 00:16:30;;;;;;;16.50;8.73;;;;;;;-5.13;71.47;96586.52;1787351;80;21091;-88
2021/01/12 00:18:57;;;;;;;25.02;13.22;;;;;;;-5.10;71.23;96577.59;1787653;80;21108;-88
2021/01/12 00:21:27;;;;;;;17.60;8.13;;;;;;;-5.04;71.05;96584.65;1787892;80;21132;-88
2021/01/12 00:23:54;;;;;;;21.27;7.53;;;;;;;-5.04;70.95;96579.97;1787777;80;21115;-88
2021/01/12 00:26:21;;;;;;;26.33;13.58;;;;;;;-5.06;70.88;96576.77;1787751;80;21116;-88
2021/01/12 00:28:48;;;;;;;27.70;11.15;;;;;;;-5.03;70.81;96571.23;1787698;80;21147;-88
2021/01/12 00:31:14;;;;;;;22.73;10.00;;;;;;;-5.01;70.54;96571.36;1787750;80;21301;-88
2021/01/12 00:33:41;;;;;;;22.20;9.28;;;;;;;-4.97;70.39;96577.75;1787758;80;21115;-88
2021/01/12 00:36:09;;;;;;;17.48;10.13;;;;;;;-4.98;70.22;96575.36;1787737;80;21235;-88
2021/01/12 00:38:36;;;;;;;18.90;7.87;;;;;;;-5.02;70.22;96577.51;1787727;80;21282;-89
2021/01/12 00:41:07;;;;;;;21.02;10.75;;;;;;;-5.00;70.07;96570.37;1787789;80;21630;-88
2021/01/12 00:43:34;;;;;;;17.30;8.15;;;;;;;-5.05;70.37;96576.58;1787940;80;21273;-88
2021/01/12 00:46:01;;;;;;;13.07;6.73;;;;;;;-5.12;70.35;96576.98;1787757;80;21108;-88
2021/01/12 00:48:28;;;;;;;23.83;10.53;;;;;;;-5.15;70.39;96585.09;1787081;80;21127;-88
2021/01/12 00:50:55;;;;;;;23.42;9.53;;;;;;;-5.17;70.46;96576.73;1787757;80;21289;-88
2021/01/12 00:53:22;;;;;;;25.63;12.80;;;;;;;-5.18;70.40;96575.93;1787784;80;21091;-88
2021/01/12 00:55:49;;;;;;;20.70;11.68;;;;;;;-5.24;70.53;96572.76;1787737;80;21119;-88
2021/01/12 00:58:16;;;;;;;18.57;9.88;;;;;;;-5.30;70.70;96561.86;1787751;80;21107;-88
2021/01/12 01:00:43;;;;;;;28.57;13.78;;;;;;;-5.35;70.89;96559.48;1787751;80;21124;-88
2021/01/12 01:03:09;;;;;;;19.53;10.47;;;;;;;-5.38;71.01;96555.48;1787723;80;21486;-88
2021/01/12 01:05:39;;;;;;;23.95;12.03;;;;;;;-5.40;71.11;96560.84;1787733;80;21111;-88
2021/01/12 01:08:06;;;;;;;23.52;11.05;;;;;;;-5.39;71.10;96555.98;1787771;80;21181;-88
2021/01/12 01:10:33;;;;;;;17.35;8.28;;;;;;;-5.30;70.90;96560.57;1787731;80;21119;-88
2021/01/12 01:13:00;;;;;;;17.48;8.40;;;;;;;-5.25;70.60;96557.44;1763333;80;21072;-88
2021/01/12 01:15:27;;;;;;;13.80;7.37;;;;;;;-5.21;70.46;96558.67;1787772;80;21120;-88
2021/01/12 01:17:53;;;;;;;11.87;7.20;;;;;;;-5.16;70.13;96561.53;1775677;80;21124;-88
2021/01/12 01:20:21;;;;;;;15.70;7.53;;;;;;;-5.14;69.94;96546.64;1787205;80;21128;-88
2021/01/12 01:22:47;;;;;;;13.72;7.62;;;;;;;-5.13;69.77;96543.08;1787139;80;21112;-88
2021/01/12 01:25:15;;;;;;;16.40;7.37;;;;;;;-5.13;69.67;96552.12;1787245;80;21479;-88
2021/01/12 01:27:41;;;;;;;15.13;7.30;;;;;;;-5.15;69.64;96548.92;1784648;80;21092;-88
2021/01/12 01:30:10;;;;;;;18.00;7.75;;;;;;;-5.11;69.30;96532.06;1768177;80;21448;-88
2021/01/12 01:32:37;;;;;;;22.65;12.43;;;;;;;-5.14;69.16;96539.69;1787145;80;21123;-88
2021/01/12 01:35:06;;;;;;;15.30;5.93;;;;;;;-5.16;69.33;96537.78;1787208;80;21132;-88
2021/01/12 01:37:37;;;;;;;17.10;7.95;;;;;;;-5.17;69.12;96532.80;1787154;80;21120;-88
2021/01/12 01:40:06;;;;;;;22.95;11.65;;;;;;;-5.11;69.05;96541.11;1787125;80;21153;-88
2021/01/12 01:42:37;;;;;;;18.33;9.20;;;;;;;-5.12;69.16;96538.22;1787199;80;21496;-88
2021/01/12 01:45:09;;;;;;;18.65;8.15;;;;;;;-5.11;69.06;96529.48;1786851;80;21107;-88
2021/01/12 01:47:36;;;;;;;24.12;12.43;;;;;;;-5.12;68.75;96539.02;1786601;80;21104;-88
2021/01/12 01:50:04;;;;;;;25.43;8.90;;;;;;;-5.11;69.04;96539.81;1787066;80;21096;-88
2021/01/12 01:52:31;;;;;;;22.03;9.87;;;;;;;-5.10;68.72;96529.30;1787196;80;21460;-88
2021/01/12 01:54:58;;;;;;;22.90;11.80;;;;;;;-5.04;68.53;96522.61;1787206;80;21135;-87
2021/01/12 01:57:26;;;;;;;13.48;6.58;;;;;;;-4.99;68.46;96525.94;1787147;80;21107;-88
2021/01/12 01:59:53;;;;;;;20.02;9.50;;;;;;;-4.98;67.89;96515.90;1787103;80;21496;-88
2021/01/12 02:02:20;;;;;;;17.77;8.85;;;;;;;-4.97;68.24;96525.25;1787181;80;21107;-88
2021/01/12 02:04:48;;;;;;;15.75;7.50;;;;;;;-4.96;67.50;96505.68;1787172;80;21500;-88
2021/01/12 02:07:16;;;;;;;14.80;7.90;;;;;;;-4.93;67.56;96510.48;1787113;80;21423;-88
2021/01/12 02:09:53;;;;;;;19.98;9.78;;;;;;;-4.95;67.28;96499.53;1787200;80;21116;-88
2021/01/12 02:12:31;;;;;;;13.00;6.30;;;;;;;-4.95;67.03;96490.97;1787141;80;21127;-87
2021/01/12 02:15:00;;;;;;;14.87;7.93;;;;;;;-4.94;67.12;96486.91;1787023;80;21112;-88
2021/01/12 02:17:28;;;;;;;18.00;9.35;;;;;;;-4.99;67.14;96449.68;1786459;80;21127;-88
2021/01/12 02:19:56;;;;;;;18.82;9.63;;;;;;;-4.91;66.75;96478.81;1785070;80;21131;-88
2021/01/12 02:22:26;;;;;;;22.87;9.65;;;;;;;-4.83;66.54;96486.42;1784921;80;21114;-88
2021/01/12 02:24:54;;;;;;;19.35;8.98;;;;;;;-4.85;66.51;96476.77;1785061;80;21103;-88
2021/01/12 02:27:23;;;;;;;12.50;6.60;;;;;;;-4.87;66.42;96474.86;1784933;80;21504;-88
2021/01/12 02:29:51;;;;;;;13.83;5.40;;;;;;;-4.86;66.17;96466.12;1784877;80;21120;-88
2021/01/12 02:32:21;;;;;;;19.75;10.30;;;;;;;-4.82;65.83;96482.05;1784933;80;21127;-88
2021/01/12 02:34:49;;;;;;;18.70;9.58;;;;;;;-4.81;65.93;96475.89;1785017;80;21519;-89
2021/01/12 02:37:18;;;;;;;15.33;6.87;;;;;;;-4.82;65.80;96467.83;1784895;80;21630;-88
2021/01/12 02:39:57;;;;;;;13.78;7.17;;;;;;;-4.79;65.61;96458.41;1784850;80;21346;-88
2021/01/12 02:42:25;;;;;;;16.60;8.43;;;;;;;-4.79;65.49;96446.77;1784975;80;21610;-88
2021/01/12 02:44:53;;;;;;;15.98;8.63;;;;;;;-4.74;65.01;96443.65;1784937;80;21258;-88
2021/01/12 02:47:20;;;;;;;18.95;9.08;;;;;;;-4.73;65.21;96441.37;1771597;80;21123;-88
2021/01/12 02:49:47;;;;;;;16.00;7.83;;;;;;;-4.76;65.03;96439.16;1777787;80;21168;-88
2021/01/12 02:52:14;;;;;;;13.60;7.80;;;;;;;-4.72;64.58;96423.57;1784907;80;21120;-87
2021/01/12 02:54:42;;;;;;;13.18;6.53;;;;;;;-4.70;64.50;96419.01;1784919;80;21257;-88
2021/01/12 02:57:09;;;;;;;12.95;6.62;;;;;;;-4.70;64.39;96438.41;1784875;80;21504;-88
2021/01/12 02:59:36;;;;;;;15.60;8.10;;;;;;;-4.72;64.20;96431.33;1773255;80;21172;-88
2021/01/12 03:02:03;;;;;;;10.60;6.03;;;;;;;-4.68;64.00;96423.49;1791596;80;21126;-88
2021/01/12 03:04:30;;;;;;;11.12;6.15;;;;;;;-4.66;63.82;96408.09;1785638;80;21237;-88
2021/01/12 03:06:57;;;;;;;14.73;7.85;;;;;;;-4.63;63.72;96417.28;1784026;80;21096;-89
2021/01/12 03:09:23;;;;;;;19.32;8.28;;;;;;;-4.63;63.46;96416.80;1784009;80;21092;-88
2021/01/12 03:11:53;;;;;;;11.60;6.60;;;;;;;-4.63;63.57;96405.16;1792686;80;21108;-88
2021/01/12 03:14:21;;;;;;;15.63;8.55;;;;;;;-4.69;63.28;96386.49;1792751;80;21470;-88
2021/01/12 03:16:51;;;;;;;13.32;5.87;;;;;;;-4.72;63.73;96396.42;1786003;80;21142;-88
2021/01/12 03:19:18;;;;;;;21.60;9.85;;;;;;;-4.79;63.83;96389.39;1799488;79;21139;-88
2021/01/12 03:21:45;;;;;;;15.35;8.30;;;;;;;-4.81;63.96;96375.06;1792700;80;21114;-88
2021/01/12 03:24:12;;;;;;;16.52;8.60;;;;;;;-4.84;63.98;96376.73;1791421;80;21143;-88
2021/01/12 03:26:39;;;;;;;12.75;8.23;;;;;;;-4.82;64.08;96362.62;1772651;80;21269;-88
2021/01/12 03:29:06;;;;;;;15.25;7.95;;;;;;;-4.81;63.96;96368.09;1771960;80;21173;-88
2021/01/12 03:31:35;;;;;;;16.70;8.48;;;;;;;-4.81;63.88;96376.34;1791662;80;21123;-88
2021/01/12 03:34:03;;;;;;;16.55;8.30;;;;;;;-4.84;64.00;96362.52;1792867;80;21127;-88
2021/01/12 03:36:30;;;;;;;16.00;7.80;;;;;;;-4.87;63.93;96354.64;1792640;80;21091;-88
2021/01/12 03:38:56;;;;;;;19.55;9.58;;;;;;;-4.88;63.95;96349.16;1792790;80;21131;-88
2021/01/12 03:41:23;;;;;;;15.60;7.73;;;;;;;-4.88;64.13;96376.80;1785237;80;21078;-88
2021/01/12 03:43:50;;;;;;;14.53;7.05;;;;;;;-4.88;63.92;96392.31;1777833;80;21114;-88
2021/01/12 03:46:17;;;;;;;14.83;8.00;;;;;;;-4.87;63.90;96385.66;1781896;80;21143;-88
2021/01/12 03:48:44;;;;;;;15.55;7.40;;;;;;;-4.86;63.83;96365.28;1778014;80;21102;-89
2021/01/12 03:51:12;;;;;;;17.60;8.65;;;;;;;-4.83;63.59;96389.47;1769020;80;21501;-89
2021/01/12 03:53:39;;;;;;;15.87;6.80;;;;;;;-4.76;63.63;96375.81;1756675;81;21086;-88
2021/01/12 03:56:07;;;;;;;15.78;8.45;;;;;;;-4.75;63.22;96367.86;1798168;80;21106;-88
2021/01/12 03:58:33;;;;;;;15.72;6.55;;;;;;;-4.74;63.45;96371.24;1776033;80;21493;-88
2021/01/12 04:01:01;;;;;;;14.33;7.85;;;;;;;-4.77;63.09;96365.16;1769388;81;21110;-88
2021/01/12 04:03:31;;;;;;;17.30;8.85;;;;;;;-4.81;63.27;96382.81;1770688;80;21134;-88
2021/01/12 04:06:03;;;;;;;14.35;7.35;;;;;;;-4.87;63.63;96366.28;1784396;80;21118;-88
2021/01/12 04:08:30;;;;;;;13.50;8.13;;;;;;;-4.90;63.80;96378.29;1792623;80;21193;-88
2021/01/12 04:10:56;;;;;;;13.50;8.05;;;;;;;-4.92;63.73;96357.50;1792729;80;21080;-88
2021/01/12 04:13:23;;;;;;;16.37;8.15;;;;;;;-4.92;63.85;96349.73;1769458;79;21107;-88
2021/01/12 04:15:50;;;;;;;14.00;7.40;;;;;;;-4.94;63.85;96355.06;1781829;79;21087;-88
2021/01/12 04:18:17;;;;;;;17.85;8.85;;;;;;;-4.89;63.19;96332.06;1767716;80;21594;-88
2021/01/12 04:20:44;;;;;;;14.68;8.18;;;;;;;-4.79;63.21;96338.17;1761870;80;21151;-88
2021/01/12 04:23:11;;;;;;;17.53;7.83;;;;;;;-4.79;63.13;96329.92;1744647;80;21229;-88
2021/01/12 04:25:39;;;;;;;16.07;8.75;;;;;;;-4.82;63.08;96325.13;1756839;80;21115;-88
2021/01/12 04:28:06;;;;;;;14.18;5.80;;;;;;;-4.83;63.27;96328.70;1785864;80;21096;-88
2021/01/12 04:30:33;;;;;;;14.20;7.43;;;;;;;-4.85;62.92;96320.34;1760881;80;21471;-88
2021/01/12 04:33:00;;;;;;;12.25;6.30;;;;;;;-4.82;62.56;96295.40;1780526;80;21139;-88
2021/01/12 04:35:27;;;;;;;13.48;5.67;;;;;;;-4.81;62.70;96316.39;1791418;80;21135;-87
2021/01/12 04:37:54;;;;;;;16.02;7.92;;;;;;;-4.79;62.72;96295.02;1792335;80;21135;-88
2021/01/12 04:40:22;;;;;;;12.43;5.92;;;;;;;-4.74;62.71;96304.02;1792186;80;21096;-88
2021/01/12 04:42:49;;;;;;;14.00;6.58;;;;;;;-4.72;62.48;96302.03;1783432;80;21478;-88
2021/01/12 04:45:16;;;;;;;13.65;6.15;;;;;;;-4.69;62.50;96295.18;1775854;80;21126;-88
2021/01/12 04:47:43;;;;;;;13.15;6.05;;;;;;;-4.70;62.40;96269.81;1792295;80;21499;-88
2021/01/12 04:50:11;;;;;;;9.03;5.03;;;;;;;-4.67;62.28;96272.52;1792560;80;21131;-88
2021/01/12 04:52:50;;;;;;;10.25;5.70;;;;;;;-4.67;62.11;96273.31;1810935;79;21119;-88
2021/01/12 04:55:20;;;;;;;10.72;5.00;;;;;;;-4.64;62.04;96286.38;1792661;80;21119;-87
2021/01/12 04:57:49;;;;;;;12.53;6.03;;;;;;;-4.57;61.69;96291.88;1792460;80;21087;-88
2021/01/12 05:00:25;;;;;;;10.95;6.22;;;;;;;-4.53;61.56;96243.14;1792480;80;21161;-88
2021/01/12 05:03:08;;;;;;;10.08;5.90;;;;;;;-4.47;61.37;96267.45;1787090;80;21221;-88
2021/01/12 05:05:38;;;;;;;9.28;4.53;;;;;;;-4.42;60.88;96249.55;1762846;80;21116;-88
2021/01/12 05:08:09;;;;;;;9.05;5.50;;;;;;;-4.42;60.94;96267.17;1792423;80;21123;-88
2021/01/12 05:10:40;;;;;;;8.78;5.17;;;;;;;-4.42;61.11;96258.61;1792508;80;21143;-87
2021/01/12 05:13:14;;;;;;;13.10;4.60;;;;;;;-4.44;60.75;96265.27;1792598;80;21128;-87
2021/01/12 05:15:45;;;;;;;13.05;6.45;;;;;;;-4.42;60.58;96260.70;1768500;79;21185;-87
2021/01/12 05:18:17;;;;;;;15.05;5.35;;;;;;;-4.40;60.53;96252.25;1774445;80;21499;-88
2021/01/12 05:20:51;;;;;;;16.73;7.30;;;;;;;-4.41;60.33;96265.38;1780123;80;21130;-88
2021/01/12 05:23:27;;;;;;;8.63;5.42;;;;;;;-4.43;60.50;96257.81;1792605;80;21110;-87
2021/01/12 05:25:55;;;;;;;14.10;6.28;;;;;;;-4.45;60.25;96253.83;1792234;80;21112;-88
2021/01/12 05:28:22;;;;;;;7.30;4.85;;;;;;;-4.47;60.38;96259.20;1758028;79;21151;-88
2021/01/12 05:30:52;;;;;;;11.33;5.50;;;;;;;-4.47;60.39;96248.84;1778688;80;21108;-88
2021/01/12 05:33:20;;;;;;;12.90;5.25;;;;;;;-4.53;60.42;96247.81;1763707;80;21485;-88
2021/01/12 05:35:49;;;;;;;14.30;6.67;;;;;;;-4.56;60.72;96249.99;1792396;80;21474;-87
2021/01/12 05:38:28;;;;;;;11.08;5.47;;;;;;;-4.59;60.65;96238.74;1792532;80;21198;-87
2021/01/12 05:41:00;;;;;;;10.53;4.63;;;;;;;-4.58;60.50;96249.39;1782617;80;21550;-88
2021/01/12 05:43:40;;;;;;;12.63;6.58;;;;;;;-4.58;60.66;96242.92;1777755;80;21288;-88
2021/01/12 05:46:13;;;;;;;;;;;;;;;-4.59;60.72;96249.09;1795194;80;21080;-87
2021/01/12 05:48:46;;;;;;;10.88;5.83;;;;;;;-4.51;60.42;96234.69;1788796;80;20125;-87
2021/01/12 05:51:16;;;;;;;11.93;6.17;;;;;;;-4.39;60.16;96240.91;1779148;80;21121;-87
2021/01/12 05:53:51;;;;;;;11.28;5.85;;;;;;;-4.34;60.11;96228.70;1758703;80;21151;-88
2021/01/12 05:56:24;;;;;;;6.40;3.77;;;;;;;-4.29;59.29;96214.67;1785338;80;21217;-88
2021/01/12 05:58:56;;;;;;;10.45;5.25;;;;;;;-4.25;59.36;96228.31;1786342;80;21139;-87
2021/01/12 06:01:49;;;;;;;9.10;3.83;;;;;;;-4.31;59.27;96212.78;1770987;80;21135;-88
2021/01/12 06:04:17;;;;;;;8.25;4.97;;;;;;;-4.24;58.16;96217.47;1762276;80;21132;-88
2021/01/12 06:06:48;;;;;;;9.20;4.70;;;;;;;-4.15;58.10;96221.98;1765742;80;21482;-88
2021/01/12 06:09:17;;;;;;;8.98;4.75;;;;;;;-4.13;58.39;96225.97;1785127;80;21131;-88
2021/01/12 06:11:54;;;;;;;8.70;4.03;;;;;;;-4.10;58.50;96197.59;1765320;80;21084;-88
2021/01/12 06:14:26;;;;;;;16.77;7.33;;;;;;;-4.11;58.16;96211.03;1787032;80;21131;-88
2021/01/12 06:16:54;;;;;;;13.83;5.65;;;;;;;-4.14;58.85;96200.28;1782506;80;21112;-88
2021/01/12 06:19:28;;;;;;;10.98;6.22;;;;;;;-4.15;58.21;96207.75;1792235;80;21293;-88
2021/01/12 06:22:04;;;;;;;14.20;6.65;;;;;;;-4.18;58.18;96189.53;1784576;80;21115;-88
2021/01/12 06:24:51;;;;;;;9.43;4.75;;;;;;;-4.21;58.37;96190.73;1788832;80;21132;-88
2021/01/12 06:27:32;;;;;;;7.72;4.37;;;;;;;-4.20;58.32;96195.41;1792630;80;21482;-88
2021/01/12 06:30:03;;;;;;;10.45;5.55;;;;;;;-4.27;58.50;96182.43;1792471;80;21076;-88
2021/01/12 06:32:33;;;;;;;14.50;7.20;;;;;;;-4.32;58.11;96180.94;1771417;80;21152;-88
2021/01/12 06:37:54;;;;;;;9.60;5.08;;;;;;;-4.33;58.50;96176.75;1866349;77;22928;-86
2021/01/12 06:40:22;;;;;;;9.48;4.42;;;;;;;-4.41;58.64;96189.86;1803142;79;21113;-86
2021/01/12 06:42:49;;;;;;;10.13;6.50;;;;;;;-4.44;58.44;96187.66;1802839;79;21224;-86
2021/01/12 06:45:18;;;;;;;14.45;6.62;;;;;;;-4.43;58.43;96148.36;1802800;80;21102;-87
2021/01/12 06:47:46;;;;;;;10.15;5.67;;;;;;;-4.42;58.54;96170.16;1802186;80;21106;-86
2021/01/12 06:50:16;;;;;;;13.30;5.62;;;;;;;-4.40;58.53;96173.34;1773994;80;21454;-86
2021/01/12 06:52:49;;;;;;;7.92;4.12;;;;;;;-4.39;58.31;96184.48;1803135;80;21533;-86
2021/01/12 06:55:20;;;;;;;12.07;5.22;;;;;;;-4.39;58.08;96182.70;1802853;80;21449;-87
2021/01/12 06:57:51;;;;;;;10.00;5.95;;;;;;;-4.39;58.21;96165.88;1802977;80;21081;-87
2021/01/12 07:00:21;;;;;;;13.00;6.45;;;;;;;-4.35;58.11;96181.83;1738171;82;21092;-87
2021/01/12 07:02:59;;;;;;;9.43;4.50;;;;;;;-4.29;57.77;96148.69;1742084;82;21093;-87
2021/01/12 07:05:40;;;;;;;12.78;5.95;;;;;;;-3.92;57.38;96175.84;1740437;82;21091;-87
2021/01/12 07:08:10;;;;;;;13.68;6.95;;;;;;;-3.45;57.01;96163.17;1735931;81;21447;-88
2021/01/12 07:10:47;;;;;;;11.38;6.35;;;;;;;-3.03;56.44;96170.98;1737231;82;21147;-88
2021/01/12 07:13:15;;;;;;;13.48;5.92;;;;;;;-2.53;56.28;96167.83;1746364;81;21126;-88
2021/01/12 07:15:46;;;;;;;7.95;4.70;;;;;;;-2.19;54.28;96173.14;1734718;82;21180;-88
2021/01/12 07:18:15;;;;;;;10.88;5.83;;;;;;;-1.96;53.16;96144.84;1728087;82;21507;-88
2021/01/12 07:20:42;;;;;;;9.68;4.78;;;;;;;-1.78;52.66;96148.50;1746374;82;21526;-88
2021/01/12 07:23:12;;;;;;;9.20;5.12;;;;;;;-1.52;51.89;96139.98;1746472;81;21091;-88
2021/01/12 07:25:43;;;;;;;11.75;5.92;;;;;;;-1.46;50.86;96126.63;1736744;81;21101;-88
2021/01/12 07:28:18;;;;;;;11.25;5.33;;;;;;;-1.59;50.35;96135.33;1738783;82;21095;-88
2021/01/12 07:30:48;;;;;;;13.05;6.33;;;;;;;-1.71;50.67;96099.86;1733536;82;21471;-88
2021/01/12 07:33:25;;;;;;;14.35;6.78;;;;;;;-1.63;51.13;96145.08;1746678;81;21087;-88
2021/01/12 07:35:58;;;;;;;14.13;6.80;;;;;;;-1.55;50.44;96133.92;1746267;81;21154;-88
2021/01/12 07:38:29;;;;;;;15.25;5.17;;;;;;;-1.38;50.61;96126.36;1746288;82;21140;-88
2021/01/12 07:41:00;;;;;;;14.20;7.22;;;;;;;-1.29;49.87;96122.97;1746395;81;21080;-88
2021/01/12 07:43:28;;;;;;;11.50;6.03;;;;;;;-1.43;50.09;96122.30;1745962;81;21115;-88
2021/01/12 07:45:56;;;;;;;12.90;6.87;;;;;;;-1.64;49.71;96060.33;1746367;81;21126;-88
2021/01/12 07:48:25;;;;;;;10.65;6.75;;;;;;;-1.92;50.50;96060.78;1730636;81;21168;-88
2021/01/12 07:50:53;;;;;;;8.48;4.55;;;;;;;-2.00;50.36;96122.86;1724264;82;21131;-88
2021/01/12 07:53:21;;;;;;;12.28;5.55;;;;;;;-1.97;50.36;96047.62;1745855;82;21542;-88
2021/01/12 07:55:50;;;;;;;7.92;5.58;;;;;;;-1.94;50.65;96109.55;1745735;82;21616;-88
2021/01/12 07:58:18;;;;;;;9.48;4.97;;;;;;;-1.82;51.38;96120.35;1745810;82;21198;-88
2021/01/12 08:00:48;;;;;;;11.93;6.00;;;;;;;-1.72;50.69;96126.34;1745743;82;21241;-88
2021/01/12 08:03:16;;;;;;;9.08;5.25;;;;;;;-1.64;50.84;96101.41;1745907;82;21257;-88
2021/01/12 08:05:43;;;;;;;10.23;4.75;;;;;;;-1.63;50.31;96108.70;1745720;82;21122;-88
2021/01/12 08:08:11;;;;;;;10.65;6.03;;;;;;;-1.52;50.90;96102.80;1745907;81;21272;-88
2021/01/12 08:10:42;;;;;;;9.87;5.43;;;;;;;-1.42;50.77;96113.48;1746075;82;21269;-88
2021/01/12 08:13:13;;;;;;;8.28;4.22;;;;;;;-1.34;50.42;96104.63;1745983;81;21664;-89
2021/01/12 08:15:44;;;;;;;9.53;5.10;;;;;;;-1.17;50.60;96129.05;1734090;82;21157;-88
2021/01/12 08:18:18;;;;;;;11.18;5.72;;;;;;;-1.16;49.83;96077.31;1727774;82;21118;-89
2021/01/12 08:20:48;;;;;;;12.03;6.78;;;;;;;-1.20;49.56;96083.47;1734503;82;21282;-88
2021/01/12 08:23:19;;;;;;;13.13;7.08;;;;;;;-1.13;50.29;96124.20;1745500;82;21612;-88
2021/01/12 08:25:48;;;;;;;11.10;5.42;;;;;;;-1.02;50.16;96113.87;1745837;81;21268;-89
2021/01/12 08:28:16;;;;;;;11.40;5.70;;;;;;;-1.20;49.68;96073.06;1738734;82;21119;-88
2021/01/12 08:30:43;;;;;;;9.60;4.62;;;;;;;-1.18;50.48;96105.86;1732466;82;21116;-89
2021/01/12 08:33:25;;;;;;;10.23;5.08;;;;;;;-1.22;50.35;96081.59;1733649;81;21276;-89
2021/01/12 08:36:00;;;;;;;12.05;6.05;;;;;;;-1.34;50.38;96083.31;1745818;81;21300;-89
2021/01/12 08:38:29;;;;;;;9.90;4.85;;;;;;;-1.40;50.95;96083.40;1745841;82;21316;-89
2021/01/12 08:40:57;;;;;;;11.05;5.33;;;;;;;-1.38;51.22;96074.88;1730047;82;21459;-89
2021/01/12 08:43:30;;;;;;;13.00;7.50;;;;;;;-1.37;51.38;96082.45;1738690;82;21184;-89
2021/01/12 08:46:03;;;;;;;9.10;5.87;;;;;;;-1.41;51.67;96073.48;1737154;82;21252;-90
2021/01/12 08:48:31;;;;;;;12.05;6.17;;;;;;;-1.46;51.12;96081.64;1743817;82;21641;-89
2021/01/12 08:50:58;;;;;;;10.40;6.12;;;;;;;-1.58;51.55;96060.25;1724848;82;21114;-89
2021/01/12 08:53:29;;;;;;;8.73;4.70;;;;;;;-1.68;51.64;96059.97;1745759;81;21241;-90
2021/01/12 08:56:10;;;;;;;13.58;5.95;;;;;;;-1.63;51.78;95997.74;1745724;82;21150;-89
2021/01/12 08:58:38;;;;;;;10.23;5.12;;;;;;;-1.55;52.01;96008.34;1726742;81;21515;-90
2021/01/12 09:01:08;;;;;;;12.55;6.78;;;;;;;-1.45;51.50;96021.64;1744587;82;21467;-90
2021/01/12 09:03:41;;;;;;;9.03;4.97;;;;;;;-1.38;51.54;96020.28;1745752;81;21118;-90
2021/01/12 09:06:04;;;;;;;10.58;5.47;;;;;;;-1.36;51.12;96017.75;1745136;82;21091;-90
2021/01/12 09:08:31;;;;;;;9.03;4.08;;;;;;;-1.28;50.98;95990.64;1745992;82;21505;-90
2021/01/12 09:11:06;;;;;;;13.43;5.80;;;;;;;-1.25;50.74;95998.82;1745694;81;21126;-90
2021/01/12 09:13:35;;;;;;;11.65;5.53;;;;;;;-1.21;50.81;95975.25;1745785;82;21241;-90
2021/01/12 09:16:04;;;;;;;9.43;5.12;;;;;;;-1.18;50.19;96001.83;1742652;82;21166;-91
2021/01/12 09:18:36;;;;;;;10.68;5.55;;;;;;;-1.20;50.69;95993.75;1716086;82;21536;-89
2021/01/12 09:21:07;;;;;;;9.55;5.15;;;;;;;-1.17;51.01;96014.61;1739224;82;21119;-89
2021/01/12 09:23:37;;;;;;;10.00;5.42;;;;;;;-1.11;50.41;95955.23;1738943;82;21121;-90
2021/01/12 09:26:05;;;;;;;11.35;5.47;;;;;;;-1.12;50.14;95978.87;1741415;82;21241;-90
2021/01/12 09:28:36;;;;;;;12.28;5.30;;;;;;;-1.07;49.71;95973.28;1745692;81;21135;-89
2021/01/12 09:31:14;;;;;;;9.43;5.50;;;;;;;-1.05;50.02;95975.66;1733731;82;21295;-89
2021/01/12 09:33:52;;;;;;;7.80;3.50;;;;;;;-0.96;49.52;95988.66;1728467;82;21130;-88
2021/01/12 09:36:21;;;;;;;11.48;5.75;;;;;;;-0.91;49.85;95996.58;1739010;82;21526;-89
2021/01/12 09:38:53;;;;;;;10.23;5.10;;;;;;;-0.90;49.41;95994.27;1700966;83;21489;-89
2021/01/12 09:41:28;;;;;;;4.58;3.67;;;;;;;-0.86;49.41;95997.21;1718627;83;21130;-89
2021/01/12 09:43:56;;;;;;;9.53;5.50;;;;;;;-0.83;49.96;95990.28;1718649;83;21184;-88
2021/01/12 09:46:24;;;;;;;12.25;5.80;;;;;;;-0.77;50.07;95986.28;1717698;83;21150;-89
2021/01/12 09:48:53;;;;;;;15.18;6.70;;;;;;;-0.74;49.16;96005.86;1698985;83;21138;-89
2021/01/12 09:51:20;;;;;;;14.28;6.62;;;;;;;-0.71;49.47;95967.16;1718698;83;21510;-89
2021/01/12 09:53:49;;;;;;;12.30;5.97;;;;;;;-0.67;49.13;95994.35;1718640;83;21121;-89
2021/01/12 09:56:20;;;;;;;12.68;6.67;;;;;;;-0.67;49.87;95967.53;1718846;83;21478;-89
2021/01/12 09:58:50;;;;;;;10.80;6.08;;;;;;;-0.62;49.75;95972.84;1718484;83;21552;-89
2021/01/12 10:01:21;;;;;;;13.98;7.20;;;;;;;-0.57;48.89;95955.25;1699830;83;21121;-90
2021/01/12 10:03:49;;;;;;;10.03;5.58;;;;;;;-0.54;49.04;95987.37;1718840;83;21123;-88
2021/01/12 10:06:22;;;;;;;10.63;6.15;;;;;;;-0.57;49.25;95969.06;1718662;83;21483;-89
2021/01/12 10:08:50;;;;;;;11.18;5.37;;;;;;;-0.56;48.77;95946.42;1718685;83;21526;-89
2021/01/12 10:11:17;;;;;;;13.40;6.53;;;;;;;-0.57;49.46;95992.48;1718628;83;21151;-89
2021/01/12 10:13:47;;;;;;;13.20;7.00;;;;;;;-0.45;49.20;95959.97;1718665;83;21103;-90
2021/01/12 10:16:25;;;;;;;9.98;5.53;;;;;;;-0.36;49.46;95965.14;1718641;83;21504;-89
2021/01/12 10:18:53;;;;;;;9.65;5.17;;;;;;;-0.32;49.30;95970.97;1706620;83;21540;-89
2021/01/12 10:21:20;;;;;;;9.53;5.08;;;;;;;-0.28;49.65;95950.98;1718648;83;21098;-89
2021/01/12 10:23:48;;;;;;;12.10;5.90;;;;;;;-0.22;49.24;95947.49;1718718;83;21102;-89
2021/01/12 10:26:19;;;;;;;12.88;6.67;;;;;;;-0.18;49.47;95948.62;1718153;83;21648;-89
2021/01/12 10:28:48;;;;;;;10.43;5.25;;;;;;;-0.12;49.90;95966.76;1716301;83;21502;-89
2021/01/12 10:31:18;;;;;;;9.53;5.08;;;;;;;-0.07;49.55;95960.34;1721712;83;21132;-88
2021/01/12 10:33:45;;;;;;;12.35;6.70;;;;;;;0.03;49.63;95945.97;1719352;83;21122;-88
2021/01/12 10:36:19;;;;;;;11.10;6.08;;;;;;;0.13;49.24;95941.74;1731201;83;21176;-89
2021/01/12 10:38:48;;;;;;;14.53;6.33;;;;;;;0.28;49.23;95951.70;1763718;81;21175;-89
2021/01/12 10:41:16;;;;;;;15.43;7.85;;;;;;;0.29;48.38;95932.45;1733092;83;21122;-89
2021/01/12 10:43:44;;;;;;;13.48;7.53;;;;;;;0.25;49.22;95939.13;1733169;83;21114;-88
2021/01/12 10:46:13;;;;;;;15.30;8.28;;;;;;;0.17;49.64;95912.12;1733137;83;21490;-89
2021/01/12 10:48:41;;;;;;;12.82;6.25;;;;;;;0.17;49.64;95912.12;1696832;83;21135;-89
2021/01/12 10:51:09;;;;;;;10.95;6.80;;;;;;;0.36;49.68;95929.70;1721131;82;21119;-89
2021/01/12 10:53:36;;;;;;;12.78;7.22;;;;;;;0.57;49.87;95895.98;1739909;82;21103;-89
2021/01/12 10:56:03;;;;;;;16.70;7.95;;;;;;;0.45;48.99;95893.92;1746920;81;21479;-89
2021/01/12 10:58:32;;;;;;;12.80;7.40;;;;;;;0.65;49.98;95899.23;1729478;81;21165;-90
2021/01/12 11:00:59;;;;;;;19.92;9.28;;;;;;;0.89;49.57;95901.52;1744104;81;21145;-90
2021/01/12 11:03:28;;;;;;;15.10;7.22;;;;;;;1.04;50.27;95886.64;1736248;82;21447;-91
2021/01/12 11:05:55;;;;;;;15.65;9.20;;;;;;;0.99;49.29;95904.04;1737504;81;21463;-90
2021/01/12 11:08:25;;;;;;;16.25;8.63;;;;;;;0.71;49.56;95867.02;1742863;82;21636;-90
2021/01/12 11:10:54;;;;;;;;;;;;;;;0.82;50.11;95875.28;1734271;82;21150;-90
2021/01/12 11:13:21;;;;;;;15.20;7.47;;;;;;;0.88;50.79;95858.70;1740746;81;20141;-89
2021/01/12 11:15:48;;;;;;;14.65;7.15;;;;;;;1.10;50.60;95861.40;1732109;81;21535;-90
2021/01/12 11:18:16;;;;;;;13.18;7.40;;;;;;;1.02;50.06;95845.63;1753914;81;21296;-90
2021/01/12 11:20:44;;;;;;;14.35;6.58;;;;;;;1.13;50.33;95859.13;1764764;81;21142;-91
2021/01/12 11:23:12;;;;;;;12.18;5.60;;;;;;;1.16;49.89;95856.04;1751847;81;21479;-90
2021/01/12 11:25:39;;;;;;;11.80;5.85;;;;;;;1.06;50.30;95850.65;1735566;82;23712;-90
2021/01/12 11:28:06;;;;;;;15.60;7.50;;;;;;;1.02;50.12;95848.24;1752380;80;21160;-90
2021/01/12 11:30:34;;;;;;;12.35;5.75;;;;;;;0.95;50.63;95842.37;1734516;81;21558;-91
2021/01/12 11:33:02;;;;;;;11.12;6.70;;;;;;;0.89;50.40;95848.55;1725403;81;21148;-90
2021/01/12 11:35:30;;;;;;;11.75;5.70;;;;;;;0.86;50.99;95837.28;1717242;81;21171;-91
2021/01/12 11:37:59;;;;;;;11.43;5.97;;;;;;;0.86;50.67;95850.32;1715295;82;21162;-89
2021/01/12 11:40:29;;;;;;;14.38;8.00;;;;;;;0.83;50.99;95839.03;1711699;83;21151;-90